Disclaimer

Please do not use the information listed here in-flight or in-navigation, as they are not provided to us by the airports but are provided by volunteers, so they might be outdated.

Search


Regions


Airport information page

Radio informations:
RDO - 8951 MHz

Airport informations:
Latitude: 43° 51' 36.18" N
Longitude: 051° 05' 31.12" E
Elevation: 73 feet - 22 meters
Operating hours: 24 hour operations
Operating agency: Civil government, landing fees and diplomatic clearance may be required
Timezone: UTC+5
Fuel: N/A

Runway information:
12/30 - 8700 x 147 feet< - >2652 x 45 meters
12L/30R - 9630 x 150 feet< - >2935 x 46 meters

Recent METARs:
UATE 122100Z 10009MPS CAVOK M00/M15 Q1036 R12/0///70 NOSIG RMK QFE775/1033
UATE 122130Z 09007MPS CAVOK M00/M15 Q1036 R12/0///70 NOSIG RMK QFE775/1033
UATE 122200Z 09009MPS CAVOK M01/M16 Q1036 R12/0///70 NOSIG RMK QFE775/1033

Airport on the map: